sensor_id;sensor_type;location;lat;lon;timestamp;P1;durP1;ratioP1;P2;durP2;ratioP2
67140;SDS011;54058;52.010;5.546;2022-08-19T00:01:22;8.10;;;5.53;;
67140;SDS011;54058;52.010;5.546;2022-08-19T00:03:49;8.95;;;6.10;;
67140;SDS011;54058;52.010;5.546;2022-08-19T00:06:15;6.47;;;5.40;;
67140;SDS011;54058;52.010;5.546;2022-08-19T00:08:41;6.28;;;5.25;;
67140;SDS011;54058;52.010;5.546;2022-08-19T00:11:08;6.75;;;6.05;;
67140;SDS011;54058;52.010;5.546;2022-08-19T00:13:34;7.82;;;5.40;;
67140;SDS011;54058;52.010;5.546;2022-08-19T00:16:00;8.30;;;5.63;;
67140;SDS011;54058;52.010;5.546;2022-08-19T00:18:26;6.15;;;4.97;;
67140;SDS011;54058;52.010;5.546;2022-08-19T00:20:52;6.03;;;5.43;;
67140;SDS011;54058;52.010;5.546;2022-08-19T00:23:18;6.20;;;5.63;;
67140;SDS011;54058;52.010;5.546;2022-08-19T00:25:44;7.35;;;5.53;;
67140;SDS011;54058;52.010;5.546;2022-08-19T00:28:10;8.23;;;5.90;;
67140;SDS011;54058;52.010;5.546;2022-08-19T00:30:36;6.22;;;5.63;;
67140;SDS011;54058;52.010;5.546;2022-08-19T00:33:02;8.03;;;6.40;;
67140;SDS011;54058;52.010;5.546;2022-08-19T00:35:28;5.63;;;5.13;;
67140;SDS011;54058;52.010;5.546;2022-08-19T00:37:53;7.50;;;6.03;;
67140;SDS011;54058;52.010;5.546;2022-08-19T00:40:20;8.70;;;5.13;;
67140;SDS011;54058;52.010;5.546;2022-08-19T00:42:46;7.78;;;5.50;;
67140;SDS011;54058;52.010;5.546;2022-08-19T00:45:14;6.03;;;5.23;;
67140;SDS011;54058;52.010;5.546;2022-08-19T00:47:44;8.88;;;5.32;;
67140;SDS011;54058;52.010;5.546;2022-08-19T00:50:11;6.55;;;5.40;;
67140;SDS011;54058;52.010;5.546;2022-08-19T00:52:43;6.28;;;5.50;;
67140;SDS011;54058;52.010;5.546;2022-08-19T00:55:22;7.15;;;6.00;;
67140;SDS011;54058;52.010;5.546;2022-08-19T00:57:53;6.15;;;5.63;;
67140;SDS011;54058;52.010;5.546;2022-08-19T01:00:24;5.43;;;4.93;;
67140;SDS011;54058;52.010;5.546;2022-08-19T01:02:51;6.70;;;5.18;;
67140;SDS011;54058;52.010;5.546;2022-08-19T01:05:20;7.32;;;6.13;;
67140;SDS011;54058;52.010;5.546;2022-08-19T01:07:48;5.97;;;5.40;;
67140;SDS011;54058;52.010;5.546;2022-08-19T01:10:18;7.25;;;5.45;;
67140;SDS011;54058;52.010;5.546;2022-08-19T01:12:46;7.75;;;6.20;;
67140;SDS011;54058;52.010;5.546;2022-08-19T01:15:14;7.18;;;6.05;;
67140;SDS011;54058;52.010;5.546;2022-08-19T01:17:42;8.30;;;5.45;;
67140;SDS011;54058;52.010;5.546;2022-08-19T01:20:10;6.20;;;5.60;;
67140;SDS011;54058;52.010;5.546;2022-08-19T01:25:16;7.28;;;5.38;;
67140;SDS011;54058;52.010;5.546;2022-08-19T01:27:47;8.50;;;6.00;;
67140;SDS011;54058;52.010;5.546;2022-08-19T01:30:19;6.10;;;5.50;;
67140;SDS011;54058;52.010;5.546;2022-08-19T01:32:48;5.68;;;4.85;;
67140;SDS011;54058;52.010;5.546;2022-08-19T01:35:15;7.00;;;5.30;;
67140;SDS011;54058;52.010;5.546;2022-08-19T01:37:43;6.15;;;5.00;;
67140;SDS011;54058;52.010;5.546;2022-08-19T01:40:12;6.30;;;5.70;;
67140;SDS011;54058;52.010;5.546;2022-08-19T01:42:38;8.05;;;5.97;;
67140;SDS011;54058;52.010;5.546;2022-08-19T01:45:04;5.53;;;5.03;;
67140;SDS011;54058;52.010;5.546;2022-08-19T01:47:33;6.78;;;5.20;;
67140;SDS011;54058;52.010;5.546;2022-08-19T01:50:02;7.32;;;5.25;;
67140;SDS011;54058;52.010;5.546;2022-08-19T01:52:29;6.80;;;5.47;;
67140;SDS011;54058;52.010;5.546;2022-08-19T01:54:55;6.87;;;5.40;;
67140;SDS011;54058;52.010;5.546;2022-08-19T01:57:20;5.60;;;5.00;;
67140;SDS011;54058;52.010;5.546;2022-08-19T01:59:46;6.03;;;4.90;;
67140;SDS011;54058;52.010;5.546;2022-08-19T02:02:11;5.97;;;5.05;;
67140;SDS011;54058;52.010;5.546;2022-08-19T02:04:37;6.85;;;6.07;;
67140;SDS011;54058;52.010;5.546;2022-08-19T02:07:04;5.47;;;4.47;;
67140;SDS011;54058;52.010;5.546;2022-08-19T02:11:57;8.02;;;5.43;;
67140;SDS011;54058;52.010;5.546;2022-08-19T02:14:23;9.50;;;6.63;;
67140;SDS011;54058;52.010;5.546;2022-08-19T02:16:49;5.90;;;5.30;;
67140;SDS011;54058;52.010;5.546;2022-08-19T02:19:14;5.80;;;4.95;;
67140;SDS011;54058;52.010;5.546;2022-08-19T02:21:40;5.72;;;5.10;;
67140;SDS011;54058;52.010;5.546;2022-08-19T02:24:06;4.72;;;4.32;;
67140;SDS011;54058;52.010;5.546;2022-08-19T02:26:32;7.05;;;4.93;;
67140;SDS011;54058;52.010;5.546;2022-08-19T02:28:58;6.77;;;5.63;;
67140;SDS011;54058;52.010;5.546;2022-08-19T02:31:24;6.60;;;5.47;;
67140;SDS011;54058;52.010;5.546;2022-08-19T02:33:52;6.00;;;5.40;;
67140;SDS011;54058;52.010;5.546;2022-08-19T02:36:20;10.98;;;5.70;;
67140;SDS011;54058;52.010;5.546;2022-08-19T02:38:46;5.15;;;4.65;;
67140;SDS011;54058;52.010;5.546;2022-08-19T02:41:19;8.80;;;5.30;;
67140;SDS011;54058;52.010;5.546;2022-08-19T02:43:47;6.28;;;5.68;;
67140;SDS011;54058;52.010;5.546;2022-08-19T02:46:14;9.05;;;6.20;;
67140;SDS011;54058;52.010;5.546;2022-08-19T02:48:49;6.05;;;5.28;;
67140;SDS011;54058;52.010;5.546;2022-08-19T02:51:18;7.70;;;5.55;;
67140;SDS011;54058;52.010;5.546;2022-08-19T02:53:45;9.48;;;6.30;;
67140;SDS011;54058;52.010;5.546;2022-08-19T02:56:11;5.90;;;5.40;;
67140;SDS011;54058;52.010;5.546;2022-08-19T02:58:36;10.48;;;6.85;;
67140;SDS011;54058;52.010;5.546;2022-08-19T03:01:02;8.80;;;5.70;;
67140;SDS011;54058;52.010;5.546;2022-08-19T03:03:28;6.18;;;5.28;;
67140;SDS011;54058;52.010;5.546;2022-08-19T03:06:09;5.90;;;5.30;;
67140;SDS011;54058;52.010;5.546;2022-08-19T03:08:41;6.20;;;5.57;;
67140;SDS011;54058;52.010;5.546;2022-08-19T03:11:12;6.88;;;5.63;;
67140;SDS011;54058;52.010;5.546;2022-08-19T03:13:44;7.03;;;5.90;;
67140;SDS011;54058;52.010;5.546;2022-08-19T03:16:11;6.05;;;5.00;;
67140;SDS011;54058;52.010;5.546;2022-08-19T03:21:03;9.10;;;5.90;;
67140;SDS011;54058;52.010;5.546;2022-08-19T03:23:31;9.05;;;6.00;;
67140;SDS011;54058;52.010;5.546;2022-08-19T03:25:57;6.43;;;5.55;;
67140;SDS011;54058;52.010;5.546;2022-08-19T03:28:23;9.45;;;5.90;;
67140;SDS011;54058;52.010;5.546;2022-08-19T03:31:04;8.20;;;7.18;;
67140;SDS011;54058;52.010;5.546;2022-08-19T03:33:35;8.73;;;6.90;;
67140;SDS011;54058;52.010;5.546;2022-08-19T03:36:08;8.98;;;7.35;;
67140;SDS011;54058;52.010;5.546;2022-08-19T03:38:38;10.60;;;7.05;;
67140;SDS011;54058;52.010;5.546;2022-08-19T03:41:12;10.55;;;7.50;;
67140;SDS011;54058;52.010;5.546;2022-08-19T03:43:40;7.22;;;6.03;;
67140;SDS011;54058;52.010;5.546;2022-08-19T03:46:08;10.05;;;7.03;;
67140;SDS011;54058;52.010;5.546;2022-08-19T03:48:36;8.00;;;6.63;;
67140;SDS011;54058;52.010;5.546;2022-08-19T03:51:04;8.18;;;7.10;;
67140;SDS011;54058;52.010;5.546;2022-08-19T03:53:30;9.13;;;6.53;;
67140;SDS011;54058;52.010;5.546;2022-08-19T03:55:58;8.43;;;7.10;;
67140;SDS011;54058;52.010;5.546;2022-08-19T03:58:27;7.13;;;6.25;;
67140;SDS011;54058;52.010;5.546;2022-08-19T04:00:58;11.18;;;7.55;;
67140;SDS011;54058;52.010;5.546;2022-08-19T04:03:24;7.45;;;6.00;;
67140;SDS011;54058;52.010;5.546;2022-08-19T04:05:51;6.30;;;5.57;;
67140;SDS011;54058;52.010;5.546;2022-08-19T04:08:18;10.52;;;6.80;;
67140;SDS011;54058;52.010;5.546;2022-08-19T04:10:49;8.02;;;6.35;;
67140;SDS011;54058;52.010;5.546;2022-08-19T04:13:15;9.85;;;6.72;;
67140;SDS011;54058;52.010;5.546;2022-08-19T04:15:42;7.97;;;6.88;;
67140;SDS011;54058;52.010;5.546;2022-08-19T04:18:09;7.50;;;6.70;;
67140;SDS011;54058;52.010;5.546;2022-08-19T04:20:46;7.97;;;7.15;;
67140;SDS011;54058;52.010;5.546;2022-08-19T04:23:13;8.13;;;7.15;;
67140;SDS011;54058;52.010;5.546;2022-08-19T04:25:41;7.45;;;6.68;;
67140;SDS011;54058;52.010;5.546;2022-08-19T04:28:08;9.55;;;7.07;;
67140;SDS011;54058;52.010;5.546;2022-08-19T04:30:39;8.50;;;7.30;;
67140;SDS011;54058;52.010;5.546;2022-08-19T04:33:06;10.27;;;6.95;;
67140;SDS011;54058;52.010;5.546;2022-08-19T04:35:34;9.90;;;7.45;;
67140;SDS011;54058;52.010;5.546;2022-08-19T04:38:04;11.00;;;7.68;;
67140;SDS011;54058;52.010;5.546;2022-08-19T04:40:30;12.25;;;9.20;;
67140;SDS011;54058;52.010;5.546;2022-08-19T04:43:15;14.48;;;8.90;;
67140;SDS011;54058;52.010;5.546;2022-08-19T04:45:42;12.13;;;9.10;;
67140;SDS011;54058;52.010;5.546;2022-08-19T04:48:08;8.13;;;7.25;;
67140;SDS011;54058;52.010;5.546;2022-08-19T04:50:35;9.50;;;8.00;;
67140;SDS011;54058;52.010;5.546;2022-08-19T04:53:00;10.60;;;9.02;;
67140;SDS011;54058;52.010;5.546;2022-08-19T04:55:26;10.55;;;9.23;;
67140;SDS011;54058;52.010;5.546;2022-08-19T04:57:51;12.15;;;8.63;;
67140;SDS011;54058;52.010;5.546;2022-08-19T05:00:18;10.75;;;9.10;;
67140;SDS011;54058;52.010;5.546;2022-08-19T05:02:43;9.55;;;7.43;;
67140;SDS011;54058;52.010;5.546;2022-08-19T05:05:09;12.55;;;9.20;;
67140;SDS011;54058;52.010;5.546;2022-08-19T05:07:35;11.07;;;8.43;;
67140;SDS011;54058;52.010;5.546;2022-08-19T05:10:02;9.33;;;8.27;;
67140;SDS011;54058;52.010;5.546;2022-08-19T05:12:29;8.35;;;7.43;;
67140;SDS011;54058;52.010;5.546;2022-08-19T05:14:56;17.05;;;8.95;;
67140;SDS011;54058;52.010;5.546;2022-08-19T05:17:22;14.88;;;9.10;;
67140;SDS011;54058;52.010;5.546;2022-08-19T05:19:48;8.80;;;7.90;;
67140;SDS011;54058;52.010;5.546;2022-08-19T05:22:32;15.82;;;8.73;;
67140;SDS011;54058;52.010;5.546;2022-08-19T05:25:07;8.35;;;7.50;;
67140;SDS011;54058;52.010;5.546;2022-08-19T05:27:37;10.25;;;7.95;;
67140;SDS011;54058;52.010;5.546;2022-08-19T05:30:03;8.27;;;7.40;;
67140;SDS011;54058;52.010;5.546;2022-08-19T05:32:30;9.18;;;7.70;;
67140;SDS011;54058;52.010;5.546;2022-08-19T05:34:55;12.77;;;9.55;;
67140;SDS011;54058;52.010;5.546;2022-08-19T05:37:21;9.97;;;8.27;;
67140;SDS011;54058;52.010;5.546;2022-08-19T05:39:47;11.80;;;8.83;;
67140;SDS011;54058;52.010;5.546;2022-08-19T05:42:14;14.57;;;10.40;;
67140;SDS011;54058;52.010;5.546;2022-08-19T05:44:41;8.65;;;7.57;;
67140;SDS011;54058;52.010;5.546;2022-08-19T05:47:09;15.55;;;9.95;;
67140;SDS011;54058;52.010;5.546;2022-08-19T05:49:37;15.38;;;10.60;;
67140;SDS011;54058;52.010;5.546;2022-08-19T05:52:03;16.08;;;11.50;;
67140;SDS011;54058;52.010;5.546;2022-08-19T05:54:31;17.08;;;13.30;;
67140;SDS011;54058;52.010;5.546;2022-08-19T05:56:57;17.52;;;11.52;;
67140;SDS011;54058;52.010;5.546;2022-08-19T05:59:23;19.95;;;13.00;;
67140;SDS011;54058;52.010;5.546;2022-08-19T06:01:49;26.33;;;15.67;;
67140;SDS011;54058;52.010;5.546;2022-08-19T06:04:19;21.27;;;16.08;;
67140;SDS011;54058;52.010;5.546;2022-08-19T06:06:46;30.10;;;19.45;;
67140;SDS011;54058;52.010;5.546;2022-08-19T06:09:13;31.20;;;18.35;;
67140;SDS011;54058;52.010;5.546;2022-08-19T06:11:40;25.67;;;17.13;;
67140;SDS011;54058;52.010;5.546;2022-08-19T06:14:14;25.10;;;16.95;;
67140;SDS011;54058;52.010;5.546;2022-08-19T06:16:43;27.00;;;19.02;;
67140;SDS011;54058;52.010;5.546;2022-08-19T06:19:11;26.17;;;17.20;;
67140;SDS011;54058;52.010;5.546;2022-08-19T06:21:42;30.75;;;19.67;;
67140;SDS011;54058;52.010;5.546;2022-08-19T06:24:10;25.30;;;16.98;;
67140;SDS011;54058;52.010;5.546;2022-08-19T06:26:38;38.30;;;23.88;;
67140;SDS011;54058;52.010;5.546;2022-08-19T06:29:06;39.17;;;22.27;;
67140;SDS011;54058;52.010;5.546;2022-08-19T06:31:33;30.15;;;19.00;;
67140;SDS011;54058;52.010;5.546;2022-08-19T06:34:01;36.13;;;22.60;;
67140;SDS011;54058;52.010;5.546;2022-08-19T06:36:34;42.55;;;25.70;;
67140;SDS011;54058;52.010;5.546;2022-08-19T06:39:06;51.03;;;26.23;;
67140;SDS011;54058;52.010;5.546;2022-08-19T06:41:38;33.38;;;20.42;;
67140;SDS011;54058;52.010;5.546;2022-08-19T06:44:06;40.50;;;22.85;;
67140;SDS011;54058;52.010;5.546;2022-08-19T06:46:32;40.60;;;24.05;;
67140;SDS011;54058;52.010;5.546;2022-08-19T06:48:58;48.40;;;28.07;;
67140;SDS011;54058;52.010;5.546;2022-08-19T06:51:24;52.85;;;30.60;;
67140;SDS011;54058;52.010;5.546;2022-08-19T06:53:51;50.92;;;28.40;;
67140;SDS011;54058;52.010;5.546;2022-08-19T06:56:20;55.65;;;31.00;;
67140;SDS011;54058;52.010;5.546;2022-08-19T06:58:50;61.60;;;33.42;;
67140;SDS011;54058;52.010;5.546;2022-08-19T07:01:18;60.80;;;34.15;;
67140;SDS011;54058;52.010;5.546;2022-08-19T07:03:44;51.92;;;30.63;;
67140;SDS011;54058;52.010;5.546;2022-08-19T07:06:12;62.97;;;34.67;;
67140;SDS011;54058;52.010;5.546;2022-08-19T07:08:42;58.55;;;33.25;;
67140;SDS011;54058;52.010;5.546;2022-08-19T07:11:09;58.10;;;33.28;;
67140;SDS011;54058;52.010;5.546;2022-08-19T07:13:38;58.35;;;33.55;;
67140;SDS011;54058;52.010;5.546;2022-08-19T07:16:08;60.28;;;34.05;;
67140;SDS011;54058;52.010;5.546;2022-08-19T07:18:36;66.95;;;35.38;;
67140;SDS011;54058;52.010;5.546;2022-08-19T07:21:06;55.13;;;31.48;;
67140;SDS011;54058;52.010;5.546;2022-08-19T07:23:34;68.60;;;37.25;;
67140;SDS011;54058;52.010;5.546;2022-08-19T07:28:44;62.13;;;35.92;;
67140;SDS011;54058;52.010;5.546;2022-08-19T07:31:12;68.13;;;37.15;;
67140;SDS011;54058;52.010;5.546;2022-08-19T07:33:39;62.65;;;35.20;;
67140;SDS011;54058;52.010;5.546;2022-08-19T07:36:08;60.85;;;34.47;;
67140;SDS011;54058;52.010;5.546;2022-08-19T07:38:36;61.58;;;33.65;;
67140;SDS011;54058;52.010;5.546;2022-08-19T07:41:04;50.03;;;30.23;;
67140;SDS011;54058;52.010;5.546;2022-08-19T07:43:29;68.10;;;36.77;;
67140;SDS011;54058;52.010;5.546;2022-08-19T07:45:55;60.67;;;33.37;;
67140;SDS011;54058;52.010;5.546;2022-08-19T07:48:27;56.78;;;32.40;;
67140;SDS011;54058;52.010;5.546;2022-08-19T07:50:57;61.25;;;35.55;;
67140;SDS011;54058;52.010;5.546;2022-08-19T07:53:27;58.28;;;31.02;;
67140;SDS011;54058;52.010;5.546;2022-08-19T07:55:54;54.42;;;31.75;;
67140;SDS011;54058;52.010;5.546;2022-08-19T07:58:21;54.73;;;31.20;;
67140;SDS011;54058;52.010;5.546;2022-08-19T08:00:48;58.00;;;32.55;;
67140;SDS011;54058;52.010;5.546;2022-08-19T08:03:16;56.22;;;32.78;;
67140;SDS011;54058;52.010;5.546;2022-08-19T08:05:44;51.92;;;30.05;;
67140;SDS011;54058;52.010;5.546;2022-08-19T08:08:30;45.65;;;29.20;;
67140;SDS011;54058;52.010;5.546;2022-08-19T08:10:56;53.97;;;31.00;;
67140;SDS011;54058;52.010;5.546;2022-08-19T08:13:22;53.37;;;31.57;;
67140;SDS011;54058;52.010;5.546;2022-08-19T08:15:48;44.60;;;28.00;;
67140;SDS011;54058;52.010;5.546;2022-08-19T08:18:14;47.85;;;28.55;;
67140;SDS011;54058;52.010;5.546;2022-08-19T08:20:40;43.27;;;27.43;;
67140;SDS011;54058;52.010;5.546;2022-08-19T08:23:06;47.80;;;27.37;;
67140;SDS011;54058;52.010;5.546;2022-08-19T08:25:51;46.35;;;26.45;;
67140;SDS011;54058;52.010;5.546;2022-08-19T08:28:18;43.28;;;25.98;;
67140;SDS011;54058;52.010;5.546;2022-08-19T08:30:44;43.70;;;26.15;;
67140;SDS011;54058;52.010;5.546;2022-08-19T08:33:12;39.20;;;22.08;;
67140;SDS011;54058;52.010;5.546;2022-08-19T08:35:39;37.40;;;23.95;;
67140;SDS011;54058;52.010;5.546;2022-08-19T08:38:07;37.90;;;23.95;;
67140;SDS011;54058;52.010;5.546;2022-08-19T08:40:38;41.63;;;24.73;;
67140;SDS011;54058;52.010;5.546;2022-08-19T08:46:05;34.90;;;23.45;;
67140;SDS011;54058;52.010;5.546;2022-08-19T08:48:39;39.25;;;25.08;;
67140;SDS011;54058;52.010;5.546;2022-08-19T08:51:20;37.75;;;22.38;;
67140;SDS011;54058;52.010;5.546;2022-08-19T08:53:51;40.10;;;24.30;;
67140;SDS011;54058;52.010;5.546;2022-08-19T08:56:18;36.22;;;23.00;;
67140;SDS011;54058;52.010;5.546;2022-08-19T09:01:35;30.60;;;20.85;;
67140;SDS011;54058;52.010;5.546;2022-08-19T09:06:36;34.30;;;21.35;;
67140;SDS011;54058;52.010;5.546;2022-08-19T09:09:12;37.90;;;23.38;;
67140;SDS011;54058;52.010;5.546;2022-08-19T09:14:57;31.30;;;20.10;;
67140;SDS011;54058;52.010;5.546;2022-08-19T09:17:32;25.42;;;17.77;;
67140;SDS011;54058;52.010;5.546;2022-08-19T09:22:34;32.10;;;20.23;;
67140;SDS011;54058;52.010;5.546;2022-08-19T09:25:00;34.30;;;22.13;;
67140;SDS011;54058;52.010;5.546;2022-08-19T09:27:27;27.23;;;18.85;;
67140;SDS011;54058;52.010;5.546;2022-08-19T09:29:53;30.30;;;20.63;;
67140;SDS011;54058;52.010;5.546;2022-08-19T09:34:46;25.52;;;17.08;;
67140;SDS011;54058;52.010;5.546;2022-08-19T09:37:12;30.70;;;18.30;;
67140;SDS011;54058;52.010;5.546;2022-08-19T09:39:38;27.83;;;17.08;;
67140;SDS011;54058;52.010;5.546;2022-08-19T09:42:05;26.20;;;17.10;;
67140;SDS011;54058;52.010;5.546;2022-08-19T09:44:39;28.80;;;17.00;;
67140;SDS011;54058;52.010;5.546;2022-08-19T09:47:05;28.20;;;16.02;;
67140;SDS011;54058;52.010;5.546;2022-08-19T09:49:32;21.95;;;15.25;;
67140;SDS011;54058;52.010;5.546;2022-08-19T09:51:58;25.05;;;17.08;;
67140;SDS011;54058;52.010;5.546;2022-08-19T09:54:24;24.40;;;16.85;;
67140;SDS011;54058;52.010;5.546;2022-08-19T09:56:50;21.77;;;13.80;;
67140;SDS011;54058;52.010;5.546;2022-08-19T09:59:17;23.70;;;15.93;;
67140;SDS011;54058;52.010;5.546;2022-08-19T10:01:43;20.33;;;14.27;;
67140;SDS011;54058;52.010;5.546;2022-08-19T10:04:08;21.00;;;14.70;;
67140;SDS011;54058;52.010;5.546;2022-08-19T10:06:35;22.33;;;14.73;;
67140;SDS011;54058;52.010;5.546;2022-08-19T10:09:03;25.35;;;14.60;;
67140;SDS011;54058;52.010;5.546;2022-08-19T10:11:31;19.42;;;13.57;;
67140;SDS011;54058;52.010;5.546;2022-08-19T10:13:58;22.63;;;12.32;;
67140;SDS011;54058;52.010;5.546;2022-08-19T10:21:19;19.83;;;13.80;;
67140;SDS011;54058;52.010;5.546;2022-08-19T10:23:50;25.35;;;14.25;;
67140;SDS011;54058;52.010;5.546;2022-08-19T10:26:22;24.65;;;15.68;;
67140;SDS011;54058;52.010;5.546;2022-08-19T10:28:49;24.88;;;15.18;;
67140;SDS011;54058;52.010;5.546;2022-08-19T10:31:19;26.85;;;16.63;;
67140;SDS011;54058;52.010;5.546;2022-08-19T10:33:53;21.55;;;13.75;;
67140;SDS011;54058;52.010;5.546;2022-08-19T10:36:23;21.52;;;13.43;;
67140;SDS011;54058;52.010;5.546;2022-08-19T10:38:55;23.75;;;14.75;;
67140;SDS011;54058;52.010;5.546;2022-08-19T10:41:24;24.80;;;15.05;;
67140;SDS011;54058;52.010;5.546;2022-08-19T10:43:52;26.00;;;14.98;;
67140;SDS011;54058;52.010;5.546;2022-08-19T10:46:20;31.63;;;15.82;;
67140;SDS011;54058;52.010;5.546;2022-08-19T10:48:47;24.90;;;15.43;;
67140;SDS011;54058;52.010;5.546;2022-08-19T10:51:13;25.10;;;14.13;;
67140;SDS011;54058;52.010;5.546;2022-08-19T10:53:58;22.65;;;14.23;;
67140;SDS011;54058;52.010;5.546;2022-08-19T10:56:25;22.88;;;14.77;;
67140;SDS011;54058;52.010;5.546;2022-08-19T10:59:10;22.40;;;14.80;;
67140;SDS011;54058;52.010;5.546;2022-08-19T11:01:39;23.42;;;15.23;;
67140;SDS011;54058;52.010;5.546;2022-08-19T11:04:07;25.98;;;14.55;;
67140;SDS011;54058;52.010;5.546;2022-08-19T11:06:36;27.45;;;17.67;;
67140;SDS011;54058;52.010;5.546;2022-08-19T11:09:03;26.70;;;16.67;;
67140;SDS011;54058;52.010;5.546;2022-08-19T11:11:30;27.02;;;15.88;;
67140;SDS011;54058;52.010;5.546;2022-08-19T11:13:57;31.10;;;18.55;;
67140;SDS011;54058;52.010;5.546;2022-08-19T11:16:24;25.42;;;15.63;;
67140;SDS011;54058;52.010;5.546;2022-08-19T11:18:56;31.92;;;16.65;;
67140;SDS011;54058;52.010;5.546;2022-08-19T11:21:30;23.20;;;14.60;;
67140;SDS011;54058;52.010;5.546;2022-08-19T11:24:02;21.77;;;15.98;;
67140;SDS011;54058;52.010;5.546;2022-08-19T11:26:30;28.58;;;16.55;;
67140;SDS011;54058;52.010;5.546;2022-08-19T11:28:58;26.35;;;15.63;;
67140;SDS011;54058;52.010;5.546;2022-08-19T11:31:26;24.85;;;16.25;;
67140;SDS011;54058;52.010;5.546;2022-08-19T11:33:55;30.75;;;17.52;;
67140;SDS011;54058;52.010;5.546;2022-08-19T11:36:22;22.88;;;17.60;;
67140;SDS011;54058;52.010;5.546;2022-08-19T11:38:48;27.65;;;15.75;;
67140;SDS011;54058;52.010;5.546;2022-08-19T11:43:41;33.08;;;19.45;;
67140;SDS011;54058;52.010;5.546;2022-08-19T11:46:07;34.10;;;16.45;;
67140;SDS011;54058;52.010;5.546;2022-08-19T11:48:36;34.40;;;17.52;;
67140;SDS011;54058;52.010;5.546;2022-08-19T11:51:04;25.83;;;16.80;;
67140;SDS011;54058;52.010;5.546;2022-08-19T11:53:33;32.50;;;19.30;;
67140;SDS011;54058;52.010;5.546;2022-08-19T11:55:59;29.58;;;20.95;;
67140;SDS011;54058;52.010;5.546;2022-08-19T11:58:25;32.58;;;19.92;;
67140;SDS011;54058;52.010;5.546;2022-08-19T12:00:51;32.50;;;16.92;;
67140;SDS011;54058;52.010;5.546;2022-08-19T12:03:17;26.70;;;17.40;;
67140;SDS011;54058;52.010;5.546;2022-08-19T12:05:44;26.23;;;18.77;;
67140;SDS011;54058;52.010;5.546;2022-08-19T12:08:10;22.83;;;15.95;;
67140;SDS011;54058;52.010;5.546;2022-08-19T12:10:37;24.25;;;17.10;;
67140;SDS011;54058;52.010;5.546;2022-08-19T12:13:04;30.90;;;17.25;;
67140;SDS011;54058;52.010;5.546;2022-08-19T12:15:35;27.15;;;16.83;;
67140;SDS011;54058;52.010;5.546;2022-08-19T12:18:02;24.95;;;18.17;;
67140;SDS011;54058;52.010;5.546;2022-08-19T12:20:29;25.75;;;16.00;;
67140;SDS011;54058;52.010;5.546;2022-08-19T12:22:54;29.05;;;17.60;;
67140;SDS011;54058;52.010;5.546;2022-08-19T12:25:20;21.80;;;15.75;;
67140;SDS011;54058;52.010;5.546;2022-08-19T12:27:46;27.55;;;18.00;;
67140;SDS011;54058;52.010;5.546;2022-08-19T12:30:12;25.55;;;17.15;;
67140;SDS011;54058;52.010;5.546;2022-08-19T12:35:04;29.60;;;15.48;;
67140;SDS011;54058;52.010;5.546;2022-08-19T12:37:30;23.92;;;16.50;;
67140;SDS011;54058;52.010;5.546;2022-08-19T12:39:57;25.02;;;17.50;;
67140;SDS011;54058;52.010;5.546;2022-08-19T12:42:23;30.30;;;17.17;;
67140;SDS011;54058;52.010;5.546;2022-08-19T12:44:49;24.58;;;16.58;;
67140;SDS011;54058;52.010;5.546;2022-08-19T12:47:16;25.02;;;14.25;;
67140;SDS011;54058;52.010;5.546;2022-08-19T12:49:42;22.33;;;14.77;;
67140;SDS011;54058;52.010;5.546;2022-08-19T12:52:09;19.75;;;13.55;;
67140;SDS011;54058;52.010;5.546;2022-08-19T12:57:04;24.48;;;11.63;;
67140;SDS011;54058;52.010;5.546;2022-08-19T12:59:32;22.30;;;12.60;;
67140;SDS011;54058;52.010;5.546;2022-08-19T13:01:59;16.05;;;12.23;;
67140;SDS011;54058;52.010;5.546;2022-08-19T13:04:25;32.20;;;12.52;;
67140;SDS011;54058;52.010;5.546;2022-08-19T13:06:51;21.10;;;14.05;;
67140;SDS011;54058;52.010;5.546;2022-08-19T13:09:16;21.85;;;13.70;;
67140;SDS011;54058;52.010;5.546;2022-08-19T13:11:42;18.63;;;11.65;;
67140;SDS011;54058;52.010;5.546;2022-08-19T13:14:08;21.33;;;12.45;;
67140;SDS011;54058;52.010;5.546;2022-08-19T13:16:36;20.08;;;12.00;;
67140;SDS011;54058;52.010;5.546;2022-08-19T13:19:03;21.05;;;12.18;;
67140;SDS011;54058;52.010;5.546;2022-08-19T13:21:30;22.10;;;12.20;;
67140;SDS011;54058;52.010;5.546;2022-08-19T13:23:56;23.65;;;12.68;;
67140;SDS011;54058;52.010;5.546;2022-08-19T13:26:23;22.85;;;13.57;;
67140;SDS011;54058;52.010;5.546;2022-08-19T13:28:48;20.23;;;11.27;;
67140;SDS011;54058;52.010;5.546;2022-08-19T13:31:34;24.05;;;13.02;;
67140;SDS011;54058;52.010;5.546;2022-08-19T13:34:26;27.17;;;13.85;;
67140;SDS011;54058;52.010;5.546;2022-08-19T13:37:02;16.25;;;12.27;;
67140;SDS011;54058;52.010;5.546;2022-08-19T13:39:32;19.85;;;12.40;;
67140;SDS011;54058;52.010;5.546;2022-08-19T13:41:58;28.40;;;12.05;;
67140;SDS011;54058;52.010;5.546;2022-08-19T13:44:24;19.88;;;12.15;;
67140;SDS011;54058;52.010;5.546;2022-08-19T13:49:17;21.25;;;11.10;;
67140;SDS011;54058;52.010;5.546;2022-08-19T13:51:45;14.57;;;10.25;;
67140;SDS011;54058;52.010;5.546;2022-08-19T13:54:11;16.27;;;11.10;;
67140;SDS011;54058;52.010;5.546;2022-08-19T13:56:41;13.38;;;10.02;;
67140;SDS011;54058;52.010;5.546;2022-08-19T13:59:08;17.98;;;10.95;;
67140;SDS011;54058;52.010;5.546;2022-08-19T14:01:34;13.60;;;9.80;;
67140;SDS011;54058;52.010;5.546;2022-08-19T14:04:01;13.20;;;9.23;;
67140;SDS011;54058;52.010;5.546;2022-08-19T14:06:27;13.48;;;9.63;;
67140;SDS011;54058;52.010;5.546;2022-08-19T14:08:52;13.83;;;9.07;;
67140;SDS011;54058;52.010;5.546;2022-08-19T14:11:18;17.43;;;9.50;;
67140;SDS011;54058;52.010;5.546;2022-08-19T14:13:44;11.80;;;8.20;;
67140;SDS011;54058;52.010;5.546;2022-08-19T14:16:10;8.77;;;7.73;;
67140;SDS011;54058;52.010;5.546;2022-08-19T14:18:44;32.33;;;8.25;;
67140;SDS011;54058;52.010;5.546;2022-08-19T14:21:16;16.70;;;7.32;;
67140;SDS011;54058;52.010;5.546;2022-08-19T14:23:45;20.98;;;8.13;;
67140;SDS011;54058;52.010;5.546;2022-08-19T14:26:13;14.48;;;7.43;;
67140;SDS011;54058;52.010;5.546;2022-08-19T14:28:42;16.50;;;8.50;;
67140;SDS011;54058;52.010;5.546;2022-08-19T14:31:12;12.80;;;7.35;;
67140;SDS011;54058;52.010;5.546;2022-08-19T14:33:41;12.00;;;6.53;;
67140;SDS011;54058;52.010;5.546;2022-08-19T14:36:07;10.35;;;6.32;;
67140;SDS011;54058;52.010;5.546;2022-08-19T14:38:33;7.13;;;5.72;;
67140;SDS011;54058;52.010;5.546;2022-08-19T14:43:55;6.47;;;5.47;;
67140;SDS011;54058;52.010;5.546;2022-08-19T14:48:52;6.43;;;5.40;;
67140;SDS011;54058;52.010;5.546;2022-08-19T14:51:19;8.48;;;5.40;;
67140;SDS011;54058;52.010;5.546;2022-08-19T14:53:46;6.70;;;4.43;;
67140;SDS011;54058;52.010;5.546;2022-08-19T14:56:17;6.20;;;4.57;;
67140;SDS011;54058;52.010;5.546;2022-08-19T14:58:45;6.80;;;4.32;;
67140;SDS011;54058;52.010;5.546;2022-08-19T15:01:11;5.77;;;4.57;;
67140;SDS011;54058;52.010;5.546;2022-08-19T15:03:38;5.97;;;4.57;;
67140;SDS011;54058;52.010;5.546;2022-08-19T15:06:05;5.68;;;4.28;;
67140;SDS011;54058;52.010;5.546;2022-08-19T15:11:00;4.93;;;3.50;;
67140;SDS011;54058;52.010;5.546;2022-08-19T15:13:27;3.92;;;3.53;;
67140;SDS011;54058;52.010;5.546;2022-08-19T15:15:55;4.03;;;3.67;;
67140;SDS011;54058;52.010;5.546;2022-08-19T15:18:22;4.68;;;3.55;;
67140;SDS011;54058;52.010;5.546;2022-08-19T15:20:47;4.37;;;3.60;;
67140;SDS011;54058;52.010;5.546;2022-08-19T15:23:14;4.05;;;3.00;;
67140;SDS011;54058;52.010;5.546;2022-08-19T15:25:40;3.47;;;2.97;;
67140;SDS011;54058;52.010;5.546;2022-08-19T15:28:07;5.50;;;3.50;;